航空気象通報

ウインドサーファーのための航空気象通報による風予報です。

7/31-8/2の航空気象通報

2016年07月31日 21時25分32秒 | TAF

羽田空港
TAF RJTT 311105Z 3112/0118 01012KT 8000 FEW010 BKN015
TEMPO 3115/3121 FEW005 BKN008
TEMPO 0103/0109 3000 TSRA BR FEW004 BKN008 FEW015CB
BECMG 0112/0115 10008KT
日本時間31日21時-1日21時:010度から12ノットの風
21-24時:風が変化
2日00-03時:100度から8ノットの風

但し、1日12-18時の間:ときどき

静岡空港
TAF RJNS 311112Z 3112/0118 28004KT 9999 FEW015 BKN030
BECMG 0100/0103 16005KT
BECMG 0109/0112 36004KT
TEMPO 0109/0115 3000 TSRA BR FEW005 BKN008 FEW020CB
TEMPO 0115/0118 3000 -SHRA BR FEW003 BKN005
日本時間31日21時-1日09時:280度から4ノットの風
09-12時:風が変化
12-18時:160度から5ノットの風
18-21時:風が変化
21時-2日03時:360度から4ノットの風

但し、1日18-24時の間:ときどき
但し、2日00-03時の間:ときどき

福岡空港
TAF RJFF 311107Z 3112/0118 31004KT 9999 FEW030
BECMG 3113/3115 15005KT
BECMG 0100/0103 32008KT
BECMG 0112/0115 14004KT
日本時間31日21-22時:310度から4ノットの風
22-24時:風が変化
1日00-09時:150度から5ノットの風
09-12時:風が変化
12-21時:320度から8ノットの風
21-24時:風が変化
2日00-03時:140度から4ノットの風

那覇空港
TAF ROAH 311106Z 3112/0118 16006KT 9999 FEW020
日本時間31日21時-2日03時:160度から6ノットの風

石垣空港
TAF ROIG 311107Z 3112/0118 11012KT 9999 FEW020
BECMG 3117/3119 15014KT
日本時間31日21時-1日02時:110度から12ノットの風
02-04時:風が変化
04時-2日03時:150度から14ノットの風

マウイのカフルイ空港
PHOG 311137Z 3112/0112 05013KT P6SM SCT030 BKN040
FM312000 05015G23KT P6SM FEW030 SCT050
FM010600 05012KT P6SM SCT030 SCT040 AMD LTD TO VIS AND WIND 3112/3116
ハワイ時間31日02-10時:050度から13ノットの風

10-20時:050度から15ノット、突風23ノット
20時-1日02時:050度から12ノットの風

サイパン空港
TAF PGSN 311127Z 3112/0112 05006KT P6SM VCSH SCT020 SCT050
マリアナ時間31日22時-1日22時:050度から6ノットの風

コメント

7/30-8/1の航空気象通報

2016年07月30日 23時17分38秒 | TAF

羽田空港
TAF RJTT 301105Z 3012/3118 08006KT 9999 FEW010 BKN040
BECMG 3013/3015 02010KT
日本時間30日21-22時:080度から6ノットの風
22-24時:風が変化
31日00時-1日03時:020度から10ノットの風

静岡空港
TAF RJNS 301105Z 3012/3118 33004KT 9999 FEW015
BECMG 3022/3024 08006KT
BECMG 3106/3109 30004KT
日本時間30日21時-31日07時:330度から4ノットの風
07-09時:風が変化
09-15時:080度から6ノットの風
15-18時:風が変化
18時-1日03時:300度から4ノットの風

福岡空港
TAF RJFF 301106Z 3012/3118 34005KT 9999 FEW030
BECMG 3013/3015 13004KT
BECMG 3100/3103 32006KT
BECMG 3112/3115 15004KT
日本時間30日21-22時:340度から5ノットの風
22-24時:風が変化
31日00-09時:130度から4ノットの風
09-12時:風が変化
12-21時:320度から6ノットの風
21-24時:風が変化
1日00-03時:150度から4ノットの風

那覇空港
TAF ROAH 301106Z 3012/3118 12005KT 9999 FEW015 SCT025
TEMPO 3018/3021 4000 SHRA FEW010 BKN020 FEW025CB
日本時間30日21時-1日03時:120度から5ノットの風

但し、31日03-06時の間:ときどき

石垣空港
TAF ROIG 301111Z 3012/3118 04005KT 9999 FEW015 SCT035
TEMPO 3018/3021 SHRA FEW010 FEW025CB BKN030
BECMG 3019/3021 16006KT
BECMG 3106/3109 11012KT
日本時間30日21時-31日04時:040度から5ノットの風
04-06時:風が変化
06-15時:160度から6ノットの風
15-18時:風が変化
18時-1日03時:110度から12ノットの風

但し、31日03-06時の間:ときどき

マウイのカフルイ空港
PHOG 301135Z 3012/3112 05011KT P6SM FEW030 SCT050
FM302000 05016G24KT P6SM FEW030 SCT050
FM310500 05011KT P6SM SCT030 SCT050 AMD LTD TO VIS AND WIND TIL 301600
ハワイ時間30日02-10時:050度から11ノットの風
10-19時:050度から16ノット、突風24ノット
19時-31日02時:050度から11ノットの風

サイパン空港
TAF PGSN 301122Z 3012/3112 08010KT P6SM VCSH SCT020
マリアナ時間30日22時-31日22時:080度から10ノットの風

コメント

7/29-7/31の航空気象通報

2016年07月30日 00時24分35秒 | TAF

羽田空港
TAF RJTT 291106Z 2912/3018 18008KT 9999 FEW020
BECMG 3015/3018 04010KT
日本時間29日21時-30日24時:180度から8ノットの風
31日00-03時:風が変化
03時:040度から10ノットの風

静岡空港
TAF RJNS 291106Z 2912/3018 34004KT 9999 FEW008 SCT020
BECMG 2922/2924 14008KT
BECMG 3009/3012 32004KT
日本時間29日21時-30日07時:340度から4ノットの風
07-09時:風が変化
09-18時:140度から8ノットの風
18-21時:風が変化
21時-31日03時:320度から4ノットの風

福岡空港
TAF RJFF 291114Z 2912/3018 33005KT 9999 FEW025
BECMG 2912/2914 15005KT
BECMG 2922/2924 32010KT
BECMG 3012/3015 14005KT
日本時間29日21時:330度から5ノットの風
21-23時:風が変化
23時-30日07時:150度から5ノットの風
07-09時:風が変化
09-21時:320度から10ノットの風
21-24時:風が変化
31日00-03時:140度から5ノットの風

那覇空港
TAF ROAH 291107Z 2912/3018 14005KT 9999 FEW015 SCT025
BECMG 2912/2914 03008KT
TEMPO 2918/2924 3000 SHRA FEW010 BKN015 FEW020CB
日本時間29日21時:140度から5ノットの風
21-23時:風が変化
23時-31日03時:030度から8ノットの風

但し、30日03-09時の間:ときどき

石垣空港
TAF ROIG 291109Z 2912/3018 09003KT 9999 FEW020 SCT030
日本時間29日21時-31日03時:090度から3ノットの風

マウイのカフルイ空港
PHOG 291507Z 2915/3012 05011KT P6SM SCT030 BKN045
TEMPO 2915/2919 BKN025
FM291900 05019G28KT P6SM FEW030 SCT045
FM300600 05014G20KT P6SM SCT030 SCT045 AMD LTD TO VIS AND WIND TIL 291600
ハワイ時間29日02-09時:050度から11ノットの風

09-20時:050度から19ノット、突風28ノット
20時-30日02時:050度から14ノット、突風20ノット

サイパン空港
TAF PGSN 291120Z 2912/3012 12008KT P6SM VCSH FEW018 SCT030 SCT100
マリアナ時間29日22時-30日22時:120度から8ノットの風

コメント

7/27-7/29の航空気象通報

2016年07月27日 23時35分05秒 | TAF

羽田空港
TAF RJTT 271107Z 2712/2818 18008KT 9999 FEW010 BKN020
日本時間27日21時-29日03時:180度から8ノットの風

静岡空港
TAF RJNS 271105Z 2712/2818 34004KT 4000 BR FEW005 BKN008
TEMPO 2712/2718 1500 BR BCFG FEW001 BKN003
TEMPO 2718/2724 2000 BR FEW003 BKN005
BECMG 2800/2803 17006KT 9999 NSW FEW015 BKN025
BECMG 2812/2815 34004KT
日本時間27日21時-28日09時:340度から4ノットの風
09-12時:風が変化
12-21時:170度から6ノットの風
21-24時:風が変化
29日00-03時:340度から4ノットの風

福岡空港
TAF RJFF 271105Z 2712/2818 15005KT 9999 FEW030
BECMG 2800/2803 32010KT
BECMG 2809/2812 15005KT
日本時間27日21時-28日09時:150度から5ノットの風
09-12時:風が変化
12-18時:320度から10ノットの風
18-21時:風が変化
21時-29日03時:150度から5ノットの風

那覇空港
TAF ROAH 271105Z 2712/2818 34005KT 9999 FEW020
日本時間27日21時-29日03時:340度から5ノットの風

石垣空港
TAF ROIG 271106Z 2712/2818 21004KT 9999 FEW025
日本時間27日21時-29日03時:210度から4ノットの風

マウイのカフルイ空港
PHOG 271138Z 2712/2812 05015G20KT P6SM FEW030 SCT045
FM272100 05022G30KT P6SM FEW030 SCT045
FM280500 05015G20KT P6SM FEW030 SCT045 AMD LTD TO VIS AND WIND TIL 271600
ハワイ時間27日02-11時:050度から15ノット、突風20ノット
11-19時:050度から22ノット、突風30ノット
19時-28日02時:050度から15ノット、突風20ノット

サイパン空港
TAF PGSN 271120Z 2712/2812 08007KT P6SM VCSH FEW020 BKN100
マリアナ時間27日22時-28日22時:080度から7ノットの風

コメント

7/26-7/28の航空気象通報

2016年07月26日 23時53分00秒 | TAF

羽田空港
TAF RJTT 261105Z 2612/2718 18016KT 8000 FEW008 BKN015
TEMPO 2615/2618 4000 SHRA BR FEW005 BKN008
日本時間26日21時-28日03時:180度から16ノットの風

但し、27日00-03時の間:ときどき

静岡空港
TAF RJNS 261112Z 2612/2718 34004KT 6000 -SHRA FEW008 BKN012
TEMPO 2612/2618 3000 SHRA BR FEW003 BKN005
TEMPO 2618/2624 4000 -SHRA BR FEW003 BKN005
BECMG 2700/2703 22012KT
日本時間26日21時-27日09時:340度から4ノットの風
09-12時:風が変化
12時-28日03時:220度から12ノットの風

福岡空港
TAF RJFF 261105Z 2612/2718 16005KT 9999 FEW030
BECMG 2700/2703 31010KT
BECMG 2709/2712 16005KT
日本時間26日21時-27日09時:160度から5ノットの風
09-12時:風が変化
12-18時:310度から10ノットの風
18-21時:風が変化
21時-28日03時:160度から5ノットの風

那覇空港
TAF ROAH 261105Z 2612/2718 32005KT 9999 FEW020
TEMPO 2621/2624 4000 SHRA
日本時間26日21時-28日03時:320度から5ノットの風

但し、27日06-09時の間:ときどき

石垣空港
TAF ROIG 261107Z 2612/2718 24005KT 9999 FEW020 SCT030
日本時間26日21時-28日03時:240度から5ノットの風

マウイのカフルイ空港
PHOG 261137Z 2612/2712 VRB04KT P6SM FEW030 SCT050
FM261800 04009KT P6SM FEW030 SCT050
FM262000 05017G24KT P6SM FEW030 SCT050
FM270500 05012G18KT P6SM FEW030 SCT050 AMD LTD TO VIS AND WIND TIL 261600
ハワイ時間26日02-08時:風向不定4ノットの風
08-10時:040度から9ノットの風
10-19時:050度から17ノット、突風24ノット
19時-27日02時:050度から12ノット、突風18ノット

サイパン空港
TAF PGSN 261120Z 2612/2712 VRB04KT P6SM VCSH FEW018 SCT040 BKN140
FM262300 07007KT P6SM VCSH FEW018 BKN120
マリアナ時間26日22時-27日09時:風向不定4ノットの風
09-22時:070度から7ノットの風

コメント